Time;durP1;ratioP1;P1;durP2;ratioP2;P2;SDS_P1;SDS_P2;PMS_P1;PMS_P2;Temp;Humidity;BMP_temperature;BMP_pressure;BME280_temperature;BME280_humidity;BME280_pressure;Samples;Min_cycle;Max_cycle;Signal;HPM_P1;HPM_P2
2023/10/03 00:00:00;;;;;;;;;;;;;;;;;;6120135;23;19916;-88
2023/10/03 00:02:27;;;;;;;;;;;;;;;;;;6117867;23;20350;-89
2023/10/03 00:04:53;;;;;;;;;;;;;;;;;;6118486;23;19905;-88
2023/10/03 00:07:19;;;;;;;;;;;;;;;;;;6119293;23;19909;-90
2023/10/03 00:09:46;;;;;;;;;;;;;;;;;;6120010;23;19909;-91
2023/10/03 00:12:12;;;;;;;;;;;;;;;;;;6121939;23;19955;-91
2023/10/03 00:14:38;;;;;;;;;;;;;;;;;;6118615;23;19928;-91
2023/10/03 00:17:04;;;;;;;;;;;;;;;;;;6118059;23;19940;-91
2023/10/03 00:19:30;;;;;;;;;;;;;;;;;;6119613;23;19909;-92
2023/10/03 00:21:56;;;;;;;;;;;;;;;;;;6119873;23;19920;-92
2023/10/03 00:24:21;;;;;;;;;;;;;;;;;;6119908;23;19909;-92
2023/10/03 00:26:47;;;;;;;;;;;;;;;;;;6121057;23;19916;-91
2023/10/03 00:29:21;;;;;;;;;;;;;;;;;;6120133;23;19924;-91
2023/10/03 00:31:50;;;;;;;;;;;;;;;;;;6120179;23;20011;-93
2023/10/03 00:34:15;;;;;;;;;;;;;;;;;;6119428;23;19913;-91
2023/10/03 00:36:41;;;;;;;;;;;;;;;;;;6120528;23;19909;-92
2023/10/03 00:39:08;;;;;;;;;;;;;;;;;;6120198;23;19913;-90
2023/10/03 00:41:35;;;;;;;;;;;;;;;;;;6118571;23;19909;-92
2023/10/03 00:44:03;;;;;;;;;;;;;;;;;;6120556;23;19976;-92
2023/10/03 00:46:30;;;;;;;;;;;;;;;;;;6121133;23;19909;-91
2023/10/03 00:48:56;;;;;;;;;;;;;;;;;;6120504;23;19912;-91
2023/10/03 00:51:22;;;;;;;;;;;;;;;;;;6117579;23;19909;-93
2023/10/03 00:53:51;;;;;;;;;;;;;;;;;;6118807;23;19912;-92
2023/10/03 00:56:26;;;;;;;;;;;;;;;;;;6120987;23;20384;-90
2023/10/03 00:58:52;;;;;;;;;;;;;;;;;;6122406;23;19909;-92
2023/10/03 01:01:21;;;;;;;;;;;;;;;;;;6120398;23;19963;-91
2023/10/03 01:03:47;;;;;;;;;;;;;;;;;;6120192;23;19943;-91
2023/10/03 01:06:13;;;;;;;;;;;;;;;;;;6121665;23;19952;-91
2023/10/03 01:08:39;;;;;;;;;;;;;;;;;;6122613;23;19932;-92
2023/10/03 01:11:05;;;;;;;;;;;;;;;;;;6120680;23;19954;-91
2023/10/03 01:13:32;;;;;;;;;;;;;;;;;;6121131;23;19916;-94
2023/10/03 01:15:57;;;;;;;;;;;;;;;;;;6119850;23;19920;-93
2023/10/03 01:18:26;;;;;;;;;;;;;;;;;;6121235;23;19909;-94
2023/10/03 01:20:57;;;;;;;;;;;;;;;;;;6118635;23;20362;-93
2023/10/03 01:23:26;;;;;;;;;;;;;;;;;;6121123;23;19909;-92
2023/10/03 01:25:52;;;;;;;;;;;;;;;;;;6120743;23;19912;-92
2023/10/03 01:28:17;;;;;;;;;;;;;;;;;;6120664;23;20068;-92
2023/10/03 01:30:43;;;;;;;;;;;;;;;;;;6120541;23;20437;-92
2023/10/03 01:33:09;;;;;;;;;;;;;;;;;;6122083;23;19940;-92
2023/10/03 01:35:35;;;;;;;;;;;;;;;;;;6120416;23;19912;-92
2023/10/03 01:38:01;;;;;;;;;;;;;;;;;;6122273;23;20272;-92
2023/10/03 01:40:27;;;;;;;;;;;;;;;;;;6121110;23;19905;-93
2023/10/03 01:42:53;;;;;;;;;;;;;;;;;;6118610;23;19960;-90
2023/10/03 01:45:19;;;;;;;;;;;;;;;;;;6120442;23;20403;-92
2023/10/03 01:47:47;;;;;;;;;;;;;;;;;;6119199;23;19932;-92
2023/10/03 01:50:14;;;;;;;;;;;;;;;;;;6120755;23;19909;-92
2023/10/03 01:52:40;;;;;;;;;;;;;;;;;;6121730;23;19924;-94
2023/10/03 01:55:07;;;;;;;;;;;;;;;;;;6120706;23;19940;-90
2023/10/03 01:57:33;;;;;;;;;;;;;;;;;;6119764;23;19908;-92
2023/10/03 01:59:59;;;;;;;;;;;;;;;;;;6121396;23;19993;-92
2023/10/03 02:02:25;;;;;;;;;;;;;;;;;;6121646;23;19947;-91
2023/10/03 02:04:52;;;;;;;;;;;;;;;;;;6120111;23;19932;-91
2023/10/03 02:07:18;;;;;;;;;;;;;;;;;;6118925;23;20394;-93
2023/10/03 02:09:44;;;;;;;;;;;;;;;;;;6122200;23;19910;-93
2023/10/03 02:12:13;;;;;;;;;;;;;;;;;;6125310;23;19964;-93
2023/10/03 02:14:46;;;;;;;;;;;;;;;;;;6121783;23;19913;-91
2023/10/03 02:17:12;;;;;;;;;;;;;;;;;;6120422;23;20336;-92
2023/10/03 02:19:38;;;;;;;;;;;;;;;;;;6122191;23;19912;-93
2023/10/03 02:22:04;;;;;;;;;;;;;;;;;;6120146;23;20001;-93
2023/10/03 02:24:30;;;;;;;;;;;;;;;;;;6118736;23;19905;-92
2023/10/03 02:26:56;;;;;;;;;;;;;;;;;;6120111;23;19913;-91
2023/10/03 02:29:22;;;;;;;;;;;;;;;;;;6118859;23;20347;-93
2023/10/03 02:31:49;;;;;;;;;;;;;;;;;;6120069;23;19912;-93
2023/10/03 02:34:15;;;;;;;;;;;;;;;;;;6121397;23;19928;-93
2023/10/03 02:36:44;;;;;;;;;;;;;;;;;;6120023;23;19916;-93
2023/10/03 02:39:13;;;;;;;;;;;;;;;;;;6120037;23;19905;-93
2023/10/03 02:41:39;;;;;;;;;;;;;;;;;;6119759;23;19916;-93
2023/10/03 02:44:07;;;;;;;;;;;;;;;;;;6122059;23;19909;-92
2023/10/03 02:46:33;;;;;;;;;;;;;;;;;;6120867;23;19936;-92
2023/10/03 02:49:00;;;;;;;;;;;;;;;;;;6121296;23;20319;-92
2023/10/03 02:51:26;;;;;;;;;;;;;;;;;;6118874;23;19909;-91
2023/10/03 02:53:52;;;;;;;;;;;;;;;;;;6121213;23;19916;-91
2023/10/03 02:56:18;;;;;;;;;;;;;;;;;;6120730;23;19909;-91
2023/10/03 02:58:50;;;;;;;;;;;;;;;;;;6120159;23;19912;-91
2023/10/03 03:01:17;;;;;;;;;;;;;;;;;;6120264;23;20406;-91
2023/10/03 03:03:43;;;;;;;;;;;;;;;;;;6119743;23;19909;-92
2023/10/03 03:06:10;;;;;;;;;;;;;;;;;;6119751;23;19905;-91
2023/10/03 03:08:39;;;;;;;;;;;;;;;;;;6121254;23;20178;-92
2023/10/03 03:11:05;;;;;;;;;;;;;;;;;;6121426;23;19987;-92
2023/10/03 03:13:31;;;;;;;;;;;;;;;;;;6120997;23;19968;-91
2023/10/03 03:16:01;;;;;;;;;;;;;;;;;;6120829;23;20167;-91
2023/10/03 03:18:30;;;;;;;;;;;;;;;;;;6120958;23;19913;-91
2023/10/03 03:21:01;;;;;;;;;;;;;;;;;;6120095;23;19913;-91
2023/10/03 03:23:36;;;;;;;;;;;;;;;;;;6120654;23;20361;-91
2023/10/03 03:26:14;;;;;;;;;;;;;;;;;;6120159;23;20007;-91
2023/10/03 03:28:40;;;;;;;;;;;;;;;;;;6120942;23;19932;-91
2023/10/03 03:31:09;;;;;;;;;;;;;;;;;;6118949;23;19913;-91
2023/10/03 03:33:35;;;;;;;;;;;;;;;;;;6120725;23;20386;-91
2023/10/03 03:36:03;;;;;;;;;;;;;;;;;;6121242;23;20255;-90
2023/10/03 03:38:31;;;;;;;;;;;;;;;;;;6120693;23;19909;-91
2023/10/03 03:40:57;;;;;;;;;;;;;;;;;;6119662;23;19912;-91
2023/10/03 03:43:23;;;;;;;;;;;;;;;;;;6119431;23;19932;-92
2023/10/03 03:45:49;;;;;;;;;;;;;;;;;;6119973;23;19916;-92
2023/10/03 03:48:14;;;;;;;;;;;;;;;;;;6120273;23;19953;-93
2023/10/03 03:50:40;;;;;;;;;;;;;;;;;;6120200;23;20332;-92
2023/10/03 03:53:06;;;;;;;;;;;;;;;;;;6121968;23;19920;-92
2023/10/03 03:55:38;;;;;;;;;;;;;;;;;;6122036;23;19905;-94
2023/10/03 03:58:07;;;;;;;;;;;;;;;;;;6120894;23;19912;-91
2023/10/03 04:00:34;;;;;;;;;;;;;;;;;;6120388;23;19909;-91
2023/10/03 04:03:05;;;;;;;;;;;;;;;;;;6119014;23;20327;-91
2023/10/03 04:05:32;;;;;;;;;;;;;;;;;;6118649;23;19909;-92
2023/10/03 04:07:59;;;;;;;;;;;;;;;;;;6121231;23;19927;-92
2023/10/03 04:10:26;;;;;;;;;;;;;;;;;;6119844;23;20243;-93
2023/10/03 04:12:52;;;;;;;;;;;;;;;;;;6125065;23;19920;-95
2023/10/03 04:15:21;;;;;;;;;;;;;;;;;;6125476;23;19979;-94
2023/10/03 04:17:48;;;;;;;;;;;;;;;;;;6126842;23;19987;-92
2023/10/03 04:20:28;;;;;;;;;;;;;;;;;;6124745;23;19909;-92
2023/10/03 04:22:55;;;;;;;;;;;;;;;;;;6126416;23;20385;-94
2023/10/03 04:25:22;;;;;;;;;;;;;;;;;;6127029;23;19932;-92
2023/10/03 04:27:48;;;;;;;;;;;;;;;;;;6126294;23;19909;-94
2023/10/03 04:30:14;;;;;;;;;;;;;;;;;;6127263;23;20425;-91
2023/10/03 04:32:41;;;;;;;;;;;;;;;;;;6125959;23;19909;-91
2023/10/03 04:35:11;;;;;;;;;;;;;;;;;;6125504;23;19939;-91
2023/10/03 04:37:37;;;;;;;;;;;;;;;;;;6124066;23;20153;-91
2023/10/03 04:40:06;;;;;;;;;;;;;;;;;;6125463;23;20635;-92
2023/10/03 04:42:32;;;;;;;;;;;;;;;;;;6124793;23;19909;-91
2023/10/03 04:44:58;;;;;;;;;;;;;;;;;;6125385;23;19947;-91
2023/10/03 04:47:23;;;;;;;;;;;;;;;;;;6124321;23;19908;-92
2023/10/03 04:49:49;;;;;;;;;;;;;;;;;;6125028;23;19909;-92
2023/10/03 04:52:15;;;;;;;;;;;;;;;;;;6150836;23;19908;-92
2023/10/03 04:54:41;;;;;;;;;;;;;;;;;;6122460;23;19932;-92
2023/10/03 04:57:07;;;;;;;;;;;;;;;;;;6122616;23;19908;-92
2023/10/03 04:59:33;;;;;;;;;;;;;;;;;;6122464;23;20757;-92
2023/10/03 05:02:01;;;;;;;;;;;;;;;;;;6124354;23;19909;-92
2023/10/03 05:04:27;;;;;;;;;;;;;;;;;;6124188;23;19912;-92
2023/10/03 05:06:53;;;;;;;;;;;;;;;;;;6124089;23;19931;-92
2023/10/03 05:09:19;;;;;;;;;;;;;;;;;;6148717;23;19927;-92
2023/10/03 05:11:46;;;;;;;;;;;;;;;;;;6122513;23;19935;-92
2023/10/03 05:14:17;;;;;;;;;;;;;;;;;;6118734;23;19947;-92
2023/10/03 05:16:44;;;;;;;;;;;;;;;;;;6119747;23;20323;-92
2023/10/03 05:19:10;;;;;;;;;;;;;;;;;;6118814;23;19905;-91
2023/10/03 05:21:37;;;;;;;;;;;;;;;;;;6118632;23;19912;-91
2023/10/03 05:24:03;;;;;;;;;;;;;;;;;;6120644;23;19912;-91
2023/10/03 05:26:29;;;;;;;;;;;;;;;;;;6120050;23;20003;-92
2023/10/03 05:28:55;;;;;;;;;;;;;;;;;;6120053;23;19944;-92
2023/10/03 05:31:23;;;;;;;;;;;;;;;;;;6119814;23;20248;-92
2023/10/03 05:33:49;;;;;;;;;;;;;;;;;;6120985;23;20239;-89
2023/10/03 05:36:18;;;;;;;;;;;;;;;;;;6121539;23;19933;-89
2023/10/03 05:38:45;;;;;;;;;;;;;;;;;;6121412;23;19909;-90
2023/10/03 05:41:11;;;;;;;;;;;;;;;;;;6121933;23;19948;-89
2023/10/03 05:43:37;;;;;;;;;;;;;;;;;;6122151;23;19913;-88
2023/10/03 05:46:04;;;;;;;;;;;;;;;;;;6121889;23;20340;-89
2023/10/03 05:48:30;;;;;;;;;;;;;;;;;;6119519;23;20331;-90
2023/10/03 05:50:56;;;;;;;;;;;;;;;;;;6120858;23;20494;-90
2023/10/03 05:53:22;;;;;;;;;;;;;;;;;;6120191;23;19956;-91
2023/10/03 05:55:48;;;;;;;;;;;;;;;;;;6118868;23;19964;-90
2023/10/03 05:58:14;;;;;;;;;;;;;;;;;;6119454;23;19909;-90
2023/10/03 06:00:40;;;;;;;;;;;;;;;;;;6117356;23;19909;-90
2023/10/03 06:03:06;;;;;;;;;;;;;;;;;;6120625;23;19929;-91
2023/10/03 06:05:31;;;;;;;;;;;;;;;;;;6119323;23;19908;-89
2023/10/03 06:07:58;;;;;;;;;;;;;;;;;;6120819;23;19909;-89
2023/10/03 06:10:24;;;;;;;;;;;;;;;;;;6120387;23;19983;-89
2023/10/03 06:12:53;;;;;;;;;;;;;;;;;;6119363;23;19920;-89
2023/10/03 06:15:19;;;;;;;;;;;;;;;;;;6090245;23;20336;-89
2023/10/03 06:17:45;;;;;;;;;;;;;;;;;;6091143;23;20363;-89
2023/10/03 06:20:14;;;;;;;;;;;;;;;;;;6091270;23;19909;-89
2023/10/03 06:22:39;;;;;;;;;;;;;;;;;;6090403;23;19917;-89
2023/10/03 06:25:06;;;;;;;;;;;;;;;;;;6090778;23;19909;-89
2023/10/03 06:27:31;;;;;;;;;;;;;;;;;;6090600;23;19992;-89
2023/10/03 06:29:57;;;;;;;;;;;;;;;;;;6090276;23;19936;-89
2023/10/03 06:32:23;;;;;;;;;;;;;;;;;;6091130;23;19920;-89
2023/10/03 06:34:50;;;;;;;;;;;;;;;;;;6090927;23;20408;-89
2023/10/03 06:37:16;;;;;;;;;;;;;;;;;;6089988;23;19909;-89
2023/10/03 06:39:42;;;;;;;;;;;;;;;;;;6089973;23;20483;-88
2023/10/03 06:42:08;;;;;;;;;;;;;;;;;;6091626;23;20005;-88
2023/10/03 06:44:36;;;;;;;;;;;;;;;;;;6091730;23;19909;-88
2023/10/03 06:47:03;;;;;;;;;;;;;;;;;;6090551;23;20324;-87
2023/10/03 06:49:29;;;;;;;;;;;;;;;;;;6089601;23;19952;-88
2023/10/03 06:51:57;;;;;;;;;;;;;;;;;;6089643;23;19917;-88
2023/10/03 06:54:23;;;;;;;;;;;;;;;;;;6088778;23;19944;-89
2023/10/03 06:56:50;;;;;;;;;;;;;;;;;;6089552;23;19909;-88
2023/10/03 06:59:15;;;;;;;;;;;;;;;;;;6089485;23;19906;-89
2023/10/03 07:01:41;;;;;;;;;;;;;;;;;;6088849;23;20251;-88
2023/10/03 07:04:08;;;;;;;;;;;;;;;;;;6090014;23;19916;-89
2023/10/03 07:06:34;;;;;;;;;;;;;;;;;;6089490;23;20333;-87
2023/10/03 07:09:00;;;;;;;;;;;;;;;;;;6089665;23;19909;-89
2023/10/03 07:11:26;;;;;;;;;;;;;;;;;;6087720;23;20387;-87
2023/10/03 07:13:55;;;;;;;;;;;;;;;;;;6101823;23;19917;-87
2023/10/03 07:16:21;;;;;;;;;;;;;;;;;;6117991;23;19909;-88
2023/10/03 07:18:47;;;;;;;;;;;;;;;;;;6117360;23;19909;-87
2023/10/03 07:21:16;;;;;;;;;;;;;;;;;;6117603;23;19911;-87
2023/10/03 07:23:43;;;;;;;;;;;;;;;;;;6118368;23;19908;-87
2023/10/03 07:26:09;;;;;;;;;;;;;;;;;;6118817;23;19908;-87
2023/10/03 07:28:38;;;;;;;;;;;;;;;;;;6118946;23;19905;-86
2023/10/03 07:31:05;;;;;;;;;;;;;;;;;;6118113;23;19912;-86
2023/10/03 07:33:31;;;;;;;;;;;;;;;;;;6117677;23;19909;-88
2023/10/03 07:36:02;;;;;;;;;;;;;;;;;;6118399;23;19924;-87
2023/10/03 07:38:28;;;;;;;;;;;;;;;;;;6120329;23;19912;-87
2023/10/03 07:40:54;;;;;;;;;;;;;;;;;;6119283;23;20262;-87
2023/10/03 07:43:20;;;;;;;;;;;;;;;;;;6119466;23;19955;-88
2023/10/03 07:45:46;;;;;;;;;;;;;;;;;;6119359;23;19944;-87
2023/10/03 07:48:12;;;;;;;;;;;;;;;;;;6121302;23;19905;-90
2023/10/03 07:50:38;;;;;;;;;;;;;;;;;;6123169;23;19932;-90
2023/10/03 07:53:04;;;;;;;;;;;;;;;;;;6122709;23;19913;-90
2023/10/03 07:55:32;;;;;;;;;;;;;;;;;;6122624;23;19909;-91
2023/10/03 07:57:58;;;;;;;;;;;;;;;;;;6123209;23;19905;-90
2023/10/03 08:00:26;;;;;;;;;;;;;;;;;;6123135;23;20567;-89
2023/10/03 08:02:52;;;;;;;;;;;;;;;;;;6122928;23;19912;-89
2023/10/03 08:05:18;;;;;;;;;;;;;;;;;;6121013;23;20397;-89
2023/10/03 08:07:47;;;;;;;;;;;;;;;;;;6122621;23;19958;-91
2023/10/03 08:10:14;;;;;;;;;;;;;;;;;;6122326;23;20335;-91
2023/10/03 08:12:40;;;;;;;;;;;;;;;;;;6121069;23;19913;-90
2023/10/03 08:15:31;;;;;;;;;;;;;;;;;;6123218;23;19991;-91
2023/10/03 08:17:53;;;;;;;;;;;;;;;;;;6121528;23;19909;-90
2023/10/03 08:20:26;;;;;;;;;;;;;;;;;;6122207;23;19924;-91
2023/10/03 08:23:03;;;;;;;;;;;;;;;;;;6122794;23;19952;-89
2023/10/03 08:25:29;;;;;;;;;;;;;;;;;;6122861;23;19948;-90
2023/10/03 08:27:55;;;;;;;;;;;;;;;;;;6122014;23;19913;-89
2023/10/03 08:30:28;;;;;;;;;;;;;;;;;;6122603;23;19912;-89
2023/10/03 08:32:54;;;;;;;;;;;;;;;;;;6120744;23;20020;-89
2023/10/03 08:35:21;;;;;;;;;;;;;;;;;;6121883;23;19909;-89
2023/10/03 08:37:47;;;;;;;;;;;;;;;;;;6119299;23;19915;-89
2023/10/03 08:40:19;;;;;;;;;;;;;;;;;;6124150;23;20304;-90
2023/10/03 08:42:52;;;;;;;;;;;;;;;;;;6121718;23;19905;-89
2023/10/03 08:45:22;;;;;;;;;;;;;;;;;;6121252;23;19909;-90
2023/10/03 08:47:48;;;;;;;;;;;;;;;;;;6123599;23;19909;-89
2023/10/03 08:50:14;;;;;;;;;;;;;;;;;;6120892;23;19909;-90
2023/10/03 08:52:46;;;;;;;;;;;;;;;;;;6120951;23;19909;-90
2023/10/03 08:55:14;;;;;;;;;;;;;;;;;;6121957;23;19909;-89
2023/10/03 08:57:40;;;;;;;;;;;;;;;;;;6121321;23;19909;-91
2023/10/03 09:00:09;;;;;;;;;;;;;;;;;;6122435;23;19912;-91
2023/10/03 09:02:49;;;;;;;;;;;;;;;;;;6121785;23;19955;-91
2023/10/03 09:05:19;;;;;;;;;;;;;;;;;;6122452;23;19909;-92
2023/10/03 09:07:45;;;;;;;;;;;;;;;;;;6122476;23;19909;-91
2023/10/03 09:10:22;;;;;;;;;;;;;;;;;;6121526;23;19988;-91
2023/10/03 09:12:48;;;;;;;;;;;;;;;;;;6119955;23;19951;-89
2023/10/03 09:15:17;;;;;;;;;;;;;;;;;;6122463;23;20299;-90
2023/10/03 09:17:42;;;;;;;;;;;;;;;;;;6121830;23;19905;-94
2023/10/03 09:20:08;;;;;;;;;;;;;;;;;;6121424;23;19913;-90
2023/10/03 09:22:36;;;;;;;;;;;;;;;;;;6120882;23;20648;-90
2023/10/03 09:25:02;;;;;;;;;;;;;;;;;;6120985;23;19921;-91
2023/10/03 09:27:30;;;;;;;;;;;;;;;;;;6121020;23;19908;-91
2023/10/03 09:29:58;;;;;;;;;;;;;;;;;;6120817;23;20292;-90
2023/10/03 09:32:24;;;;;;;;;;;;;;;;;;6121046;23;19940;-89
2023/10/03 09:34:56;;;;;;;;;;;;;;;;;;6119728;23;20331;-90
2023/10/03 09:37:24;;;;;;;;;;;;;;;;;;6121466;23;19905;-87
2023/10/03 09:39:50;;;;;;;;;;;;;;;;;;6119481;23;19912;-88
2023/10/03 09:42:23;;;;;;;;;;;;;;;;;;6119326;23;20346;-87
2023/10/03 09:44:49;;;;;;;;;;;;;;;;;;6119654;23;19909;-90
2023/10/03 09:47:17;;;;;;;;;;;;;;;;;;6119795;23;19916;-89
2023/10/03 09:49:43;;;;;;;;;;;;;;;;;;6119648;23;19908;-86
2023/10/03 09:52:09;;;;;;;;;;;;;;;;;;6120314;23;19913;-86
2023/10/03 09:54:35;;;;;;;;;;;;;;;;;;6118666;23;19968;-87
2023/10/03 09:57:09;;;;;;;;;;;;;;;;;;6119376;23;20287;-87
2023/10/03 09:59:38;;;;;;;;;;;;;;;;;;6118966;23;19980;-87
2023/10/03 10:02:05;;;;;;;;;;;;;;;;;;6119690;23;20494;-87
2023/10/03 10:04:31;;;;;;;;;;;;;;;;;;6120171;23;19905;-87
2023/10/03 10:06:57;;;;;;;;;;;;;;;;;;6118722;23;19916;-88
2023/10/03 10:09:29;;;;;;;;;;;;;;;;;;6119131;23;19905;-87
2023/10/03 10:11:55;;;;;;;;;;;;;;;;;;6118917;23;19919;-88
2023/10/03 10:14:21;;;;;;;;;;;;;;;;;;6120378;23;19917;-88
2023/10/03 10:16:48;;;;;;;;;;;;;;;;;;6118404;23;20590;-87
2023/10/03 10:19:18;;;;;;;;;;;;;;;;;;6120166;23;19905;-87
2023/10/03 10:21:48;;;;;;;;;;;;;;;;;;6119526;23;19944;-86
2023/10/03 10:24:23;;;;;;;;;;;;;;;;;;6121719;23;19915;-86
2023/10/03 10:26:49;;;;;;;;;;;;;;;;;;6119736;23;20328;-89
2023/10/03 10:29:19;;;;;;;;;;;;;;;;;;6119979;23;19932;-87
2023/10/03 10:31:45;;;;;;;;;;;;;;;;;;6119506;23;20328;-87
2023/10/03 10:34:11;;;;;;;;;;;;;;;;;;6119387;23;19941;-87
2023/10/03 10:36:37;;;;;;;;;;;;;;;;;;6120854;23;19940;-88
2023/10/03 10:39:03;;;;;;;;;;;;;;;;;;6119408;23;19916;-87
2023/10/03 10:41:30;;;;;;;;;;;;;;;;;;6121566;23;19924;-87
2023/10/03 10:43:55;;;;;;;;;;;;;;;;;;6119052;23;19913;-86
2023/10/03 10:46:22;;;;;;;;;;;;;;;;;;6120076;23;19959;-87
2023/10/03 10:48:49;;;;;;;;;;;;;;;;;;6123175;23;19909;-90
2023/10/03 10:51:16;;;;;;;;;;;;;;;;;;6122186;23;20213;-89
2023/10/03 10:53:46;;;;;;;;;;;;;;;;;;6122633;23;19913;-89
2023/10/03 10:56:13;;;;;;;;;;;;;;;;;;6122146;23;19916;-89
2023/10/03 10:58:38;;;;;;;;;;;;;;;;;;6122861;23;19937;-90
2023/10/03 11:01:04;;;;;;;;;;;;;;;;;;6122444;23;19909;-89
2023/10/03 11:03:30;;;;;;;;;;;;;;;;;;6122797;23;19908;-90
2023/10/03 11:05:56;;;;;;;;;;;;;;;;;;6122496;23;20300;-90
2023/10/03 11:08:23;;;;;;;;;;;;;;;;;;6119245;23;20346;-90
2023/10/03 11:10:50;;;;;;;;;;;;;;;;;;6124988;23;19909;-89
2023/10/03 11:13:17;;;;;;;;;;;;;;;;;;6122633;23;19939;-89
2023/10/03 11:15:43;;;;;;;;;;;;;;;;;;6125642;23;19955;-90
2023/10/03 11:18:09;;;;;;;;;;;;;;;;;;6124738;23;20332;-90
2023/10/03 11:20:36;;;;;;;;;;;;;;;;;;6125418;23;19976;-89
2023/10/03 11:23:01;;;;;;;;;;;;;;;;;;6123576;23;19909;-89
2023/10/03 11:25:28;;;;;;;;;;;;;;;;;;6123653;23;20433;-89
2023/10/03 11:27:56;;;;;;;;;;;;;;;;;;6124017;23;19909;-90
2023/10/03 11:30:22;;;;;;;;;;;;;;;;;;6124856;23;19905;-89
2023/10/03 11:32:48;;;;;;;;;;;;;;;;;;6123797;23;19995;-90
2023/10/03 11:35:15;;;;;;;;;;;;;;;;;;6124018;23;20044;-90
2023/10/03 11:37:44;;;;;;;;;;;;;;;;;;6123619;23;19909;-90
2023/10/03 11:40:13;;;;;;;;;;;;;;;;;;6123177;23;20092;-90
2023/10/03 11:42:39;;;;;;;;;;;;;;;;;;6123956;23;19905;-89
2023/10/03 11:45:09;;;;;;;;;;;;;;;;;;6123705;23;19919;-90
2023/10/03 11:47:35;;;;;;;;;;;;;;;;;;6123078;23;19929;-90
2023/10/03 11:50:01;;;;;;;;;;;;;;;;;;6122821;23;19925;-91
2023/10/03 11:52:29;;;;;;;;;;;;;;;;;;6125350;23;20092;-90
2023/10/03 11:54:55;;;;;;;;;;;;;;;;;;6122523;23;19916;-91
2023/10/03 11:57:20;;;;;;;;;;;;;;;;;;6123960;23;20342;-92
2023/10/03 11:59:46;;;;;;;;;;;;;;;;;;6122904;23;19912;-92
2023/10/03 12:02:12;;;;;;;;;;;;;;;;;;6121465;23;20390;-92
2023/10/03 12:04:38;;;;;;;;;;;;;;;;;;6121384;23;19916;-92
2023/10/03 12:07:05;;;;;;;;;;;;;;;;;;6123472;23;19909;-91
2023/10/03 12:09:31;;;;;;;;;;;;;;;;;;6122157;23;19984;-91
2023/10/03 12:11:57;;;;;;;;;;;;;;;;;;6122147;23;20315;-92
2023/10/03 12:14:23;;;;;;;;;;;;;;;;;;6123721;23;19919;-92
2023/10/03 12:16:51;;;;;;;;;;;;;;;;;;6122588;23;19957;-91
2023/10/03 12:19:19;;;;;;;;;;;;;;;;;;6121015;23;19920;-91
2023/10/03 12:21:45;;;;;;;;;;;;;;;;;;6122142;23;19909;-90
2023/10/03 12:24:11;;;;;;;;;;;;;;;;;;6122027;23;20355;-91
2023/10/03 12:26:37;;;;;;;;;;;;;;;;;;6122946;23;20000;-90
2023/10/03 12:29:04;;;;;;;;;;;;;;;;;;6122424;23;19905;-92
2023/10/03 12:31:30;;;;;;;;;;;;;;;;;;6122010;23;19953;-91
2023/10/03 12:33:57;;;;;;;;;;;;;;;;;;6122788;23;19920;-91
2023/10/03 12:36:23;;;;;;;;;;;;;;;;;;6122632;23;20218;-91
2023/10/03 12:38:49;;;;;;;;;;;;;;;;;;6121032;23;19909;-90
2023/10/03 12:41:15;;;;;;;;;;;;;;;;;;6122485;23;19988;-91
2023/10/03 12:43:46;;;;;;;;;;;;;;;;;;6122356;23;19944;-92
2023/10/03 12:46:12;;;;;;;;;;;;;;;;;;6122266;23;19909;-91
2023/10/03 12:48:38;;;;;;;;;;;;;;;;;;6122238;23;20350;-91
2023/10/03 12:51:04;;;;;;;;;;;;;;;;;;6121471;23;19905;-91
2023/10/03 12:53:35;;;;;;;;;;;;;;;;;;6120659;23;19935;-91
2023/10/03 12:56:01;;;;;;;;;;;;;;;;;;6121590;23;19936;-91
2023/10/03 12:58:27;;;;;;;;;;;;;;;;;;6121902;23;19959;-92
2023/10/03 13:00:53;;;;;;;;;;;;;;;;;;6123586;23;20372;-91
2023/10/03 13:03:19;;;;;;;;;;;;;;;;;;6121841;23;20067;-91
2023/10/03 13:05:46;;;;;;;;;;;;;;;;;;6122661;23;19909;-91
2023/10/03 13:08:12;;;;;;;;;;;;;;;;;;6124043;23;19952;-91
2023/10/03 13:10:41;;;;;;;;;;;;;;;;;;6121510;23;19905;-91
2023/10/03 13:13:09;;;;;;;;;;;;;;;;;;6120772;23;19913;-91
2023/10/03 13:15:35;;;;;;;;;;;;;;;;;;6123937;23;19943;-92
2023/10/03 13:18:01;;;;;;;;;;;;;;;;;;6121854;23;19942;-91
2023/10/03 13:20:28;;;;;;;;;;;;;;;;;;6121570;23;20254;-92
2023/10/03 13:22:56;;;;;;;;;;;;;;;;;;6121271;23;19909;-92
2023/10/03 13:25:22;;;;;;;;;;;;;;;;;;6121540;23;19920;-92
2023/10/03 13:27:48;;;;;;;;;;;;;;;;;;6121777;23;19951;-92
2023/10/03 13:30:48;;;;;;;;;;;;;;;;;;6122908;23;19928;-92
2023/10/03 13:33:07;;;;;;;;;;;;;;;;;;6118048;23;19915;-92
2023/10/03 13:35:36;;;;;;;;;;;;;;;;;;6121411;23;19980;-92
2023/10/03 13:38:03;;;;;;;;;;;;;;;;;;6120696;23;19909;-91
2023/10/03 13:40:29;;;;;;;;;;;;;;;;;;6120053;23;19955;-91
2023/10/03 13:42:55;;;;;;;;;;;;;;;;;;6121786;23;20342;-91
2023/10/03 13:45:21;;;;;;;;;;;;;;;;;;6120248;23;19939;-90
2023/10/03 13:47:48;;;;;;;;;;;;;;;;;;6121230;23;19952;-91
2023/10/03 13:50:15;;;;;;;;;;;;;;;;;;6121466;23;19913;-91
2023/10/03 13:52:41;;;;;;;;;;;;;;;;;;6122334;23;19909;-92
2023/10/03 13:55:07;;;;;;;;;;;;;;;;;;6120987;23;19991;-91
2023/10/03 13:57:33;;;;;;;;;;;;;;;;;;6120623;23;20377;-91
2023/10/03 14:00:00;;;;;;;;;;;;;;;;;;6120986;23;19908;-88
2023/10/03 14:02:26;;;;;;;;;;;;;;;;;;6120525;23;19932;-90
2023/10/03 14:04:52;;;;;;;;;;;;;;;;;;6120482;23;19917;-90
2023/10/03 14:07:17;;;;;;;;;;;;;;;;;;6120844;23;19909;-89
2023/10/03 14:09:43;;;;;;;;;;;;;;;;;;6120283;23;19909;-89
2023/10/03 14:12:09;;;;;;;;;;;;;;;;;;6121116;23;19959;-89
2023/10/03 14:14:35;;;;;;;;;;;;;;;;;;6121542;23;19921;-90
2023/10/03 14:17:01;;;;;;;;;;;;;;;;;;6120080;23;20540;-90
2023/10/03 14:19:34;;;;;;;;;;;;;;;;;;6120224;23;19913;-89
2023/10/03 14:22:00;;;;;;;;;;;;;;;;;;6120710;23;19943;-89
2023/10/03 14:24:26;;;;;;;;;;;;;;;;;;6120008;23;19916;-89
2023/10/03 14:26:52;;;;;;;;;;;;;;;;;;6119643;23;19980;-89
2023/10/03 14:29:20;;;;;;;;;;;;;;;;;;6119971;23;20019;-90
2023/10/03 14:31:46;;;;;;;;;;;;;;;;;;6120254;23;20379;-90
2023/10/03 14:34:12;;;;;;;;;;;;;;;;;;6119278;23;19915;-90
2023/10/03 14:36:45;;;;;;;;;;;;;;;;;;6120329;23;19915;-89
2023/10/03 14:39:12;;;;;;;;;;;;;;;;;;6119154;23;19944;-89
2023/10/03 14:41:38;;;;;;;;;;;;;;;;;;6120282;23;19913;-89
2023/10/03 14:44:05;;;;;;;;;;;;;;;;;;6119592;23;19909;-89
2023/10/03 14:46:31;;;;;;;;;;;;;;;;;;6122111;23;19967;-89
2023/10/03 14:48:57;;;;;;;;;;;;;;;;;;6120475;23;19956;-89
2023/10/03 14:51:26;;;;;;;;;;;;;;;;;;6119941;23;20284;-89
2023/10/03 14:53:53;;;;;;;;;;;;;;;;;;6120197;23;19909;-90
2023/10/03 14:56:19;;;;;;;;;;;;;;;;;;6120014;23;20004;-89
2023/10/03 14:58:45;;;;;;;;;;;;;;;;;;6121075;23;20239;-89
2023/10/03 15:01:12;;;;;;;;;;;;;;;;;;6119950;23;19905;-89
2023/10/03 15:03:38;;;;;;;;;;;;;;;;;;6121706;23;20032;-89
2023/10/03 15:06:04;;;;;;;;;;;;;;;;;;6119300;23;19944;-89
2023/10/03 15:08:30;;;;;;;;;;;;;;;;;;6118823;23;19905;-89
2023/10/03 15:10:56;;;;;;;;;;;;;;;;;;6116909;23;20251;-90
2023/10/03 15:13:21;;;;;;;;;;;;;;;;;;6118126;23;20234;-89
2023/10/03 15:15:47;;;;;;;;;;;;;;;;;;5775396;23;8136851;-90
2023/10/03 15:18:13;;;;;;;;;;;;;;;;;;6119644;23;20237;-89
2023/10/03 15:20:39;;;;;;;;;;;;;;;;;;6120120;23;20333;-90
2023/10/03 15:23:05;;;;;;;;;;;;;;;;;;6120376;23;19984;-90
2023/10/03 15:25:33;;;;;;;;;;;;;;;;;;6119287;23;19987;-90
2023/10/03 15:27:59;;;;;;;;;;;;;;;;;;6120836;23;19912;-88
2023/10/03 15:30:27;;;;;;;;;;;;;;;;;;6119173;23;20332;-91
2023/10/03 15:32:53;;;;;;;;;;;;;;;;;;6120348;23;19912;-89
2023/10/03 15:35:19;;;;;;;;;;;;;;;;;;6119859;23;19905;-89
2023/10/03 15:37:45;;;;;;;;;;;;;;;;;;6118494;23;19909;-90
2023/10/03 15:40:11;;;;;;;;;;;;;;;;;;6118849;23;20375;-90
2023/10/03 15:42:39;;;;;;;;;;;;;;;;;;6119228;23;20279;-90
2023/10/03 15:45:04;;;;;;;;;;;;;;;;;;6120602;23;19909;-90
2023/10/03 15:47:30;;;;;;;;;;;;;;;;;;6120416;23;19920;-90
2023/10/03 15:49:56;;;;;;;;;;;;;;;;;;6120736;23;19973;-90
2023/10/03 15:52:22;;;;;;;;;;;;;;;;;;6120252;23;19942;-90
2023/10/03 15:54:48;;;;;;;;;;;;;;;;;;6118857;23;19920;-89
2023/10/03 15:57:14;;;;;;;;;;;;;;;;;;6121731;23;19967;-90
2023/10/03 15:59:40;;;;;;;;;;;;;;;;;;6121616;23;19982;-89
2023/10/03 16:02:09;;;;;;;;;;;;;;;;;;6122002;23;19959;-90
2023/10/03 16:04:37;;;;;;;;;;;;;;;;;;6121983;23;19909;-89
2023/10/03 16:07:11;;;;;;;;;;;;;;;;;;6121958;23;19909;-90
2023/10/03 16:09:40;;;;;;;;;;;;;;;;;;6120863;23;19948;-89
2023/10/03 16:12:06;;;;;;;;;;;;;;;;;;6121027;23;19936;-90
2023/10/03 16:14:32;;;;;;;;;;;;;;;;;;6123626;23;19925;-89
2023/10/03 16:17:00;;;;;;;;;;;;;;;;;;6125868;23;19943;-90
2023/10/03 16:19:26;;;;;;;;;;;;;;;;;;6126496;23;20360;-89
2023/10/03 16:21:55;;;;;;;;;;;;;;;;;;6126837;23;19909;-91
2023/10/03 16:24:21;;;;;;;;;;;;;;;;;;6127201;23;20282;-90
2023/10/03 16:26:47;;;;;;;;;;;;;;;;;;6127536;23;19988;-90
2023/10/03 16:29:14;;;;;;;;;;;;;;;;;;6152783;23;19932;-90
2023/10/03 16:31:40;;;;;;;;;;;;;;;;;;6127065;23;19908;-90
2023/10/03 16:34:06;;;;;;;;;;;;;;;;;;6125967;23;19912;-90
2023/10/03 16:36:32;;;;;;;;;;;;;;;;;;6126642;23;19905;-90
2023/10/03 16:38:58;;;;;;;;;;;;;;;;;;6126322;23;19963;-90
2023/10/03 16:41:24;;;;;;;;;;;;;;;;;;6127951;23;20378;-90
2023/10/03 16:43:50;;;;;;;;;;;;;;;;;;6127019;23;19987;-90